CSLBA LPBG-LPCS

Flight info

Callsign CSLBA
Flight time 0h 58m
Altitude 25000
Route CANAR G41 VIS DCT XAMAX
Aircraft B350/L-SDFGHIRWXY/SB1

Departure

Time 2026-04-18 21:18
Airport Bragança Airport (LPBG)

Arrival

Time 2026-04-18 22:16
Airport Cascais Airport (LPCS)
Time Latitude Longitude Altitude Speed Heading
2026-04-18 20:59 41.85611 -6.70583 2270 ft 0 kts 192°
2026-04-18 21:13 41.85604 -6.70594 2269 ft 5 kts 273°
2026-04-18 21:13 41.85644 -6.70629 2271 ft 9 kts 323°
2026-04-18 21:14 41.85671 -6.70702 2271 ft 6 kts 288°
2026-04-18 21:14 41.85687 -6.70739 2272 ft 6 kts 328°
2026-04-18 21:14 41.85737 -6.70734 2267 ft 10 kts 13°
2026-04-18 21:14 41.85789 -6.70717 2264 ft 13 kts 14°
2026-04-18 21:15 41.85922 -6.70674 2256 ft 16 kts 13°
2026-04-18 21:15 41.86037 -6.70636 2249 ft 18 kts 13°
2026-04-18 21:15 41.86162 -6.70597 2243 ft 18 kts 14°
2026-04-18 21:15 41.86283 -6.70557 2238 ft 18 kts 14°
2026-04-18 21:16 41.86399 -6.70520 2235 ft 13 kts 13°
2026-04-18 21:16 41.86485 -6.70502 2232 ft 9 kts 342°
2026-04-18 21:16 41.86499 -6.70487 2229 ft 1 kts 196°
2026-04-18 21:16 41.86495 -6.70488 2229 ft 0 kts 196°
2026-04-18 21:17 41.86493 -6.70489 2229 ft 5 kts 195°
2026-04-18 21:17 41.86370 -6.70533 2235 ft 53 kts 194°
2026-04-18 21:18 41.85448 -6.70830 2291 ft 138 kts 193°
2026-04-18 21:18 41.84442 -6.71152 2670 ft 161 kts 192°
2026-04-18 21:18 41.83324 -6.71440 3312 ft 167 kts 190°
2026-04-18 21:18 41.82238 -6.71987 3950 ft 171 kts 225°
2026-04-18 21:19 41.81398 -6.73219 4387 ft 188 kts 229°
2026-04-18 21:19 41.80509 -6.74600 4770 ft 202 kts 229°
2026-04-18 21:19 41.79597 -6.76105 5135 ft 213 kts 232°
2026-04-18 21:19 41.78690 -6.77726 5445 ft 223 kts 232°
2026-04-18 21:20 41.77735 -6.79436 5734 ft 228 kts 232°
2026-04-18 21:20 41.76810 -6.81076 6371 ft 219 kts 231°
2026-04-18 21:20 41.75890 -6.82673 6987 ft 214 kts 231°
2026-04-18 21:20 41.74990 -6.84236 7593 ft 210 kts 230°
2026-04-18 21:21 41.74099 -6.85774 8221 ft 207 kts 230°
2026-04-18 21:21 41.73225 -6.87288 8804 ft 204 kts 230°
2026-04-18 21:21 41.72371 -6.88787 9425 ft 203 kts 229°
2026-04-18 21:21 41.71464 -6.90362 9632 ft 219 kts 230°
2026-04-18 21:22 41.70545 -6.91980 10165 ft 217 kts 229°
2026-04-18 21:22 41.69619 -6.93576 10684 ft 215 kts 230°
2026-04-18 21:22 41.68721 -6.95141 11309 ft 210 kts 230°
2026-04-18 21:22 41.67839 -6.96672 11926 ft 205 kts 230°
2026-04-18 21:23 41.66971 -6.98176 12545 ft 202 kts 230°
2026-04-18 21:23 41.66116 -6.99646 13179 ft 199 kts 231°
2026-04-18 21:23 41.65265 -7.01113 13741 ft 201 kts 231°
2026-04-18 21:23 41.64396 -7.02585 14298 ft 203 kts 227°
2026-04-18 21:24 41.63327 -7.03806 14860 ft 203 kts 212°
2026-04-18 21:24 41.62147 -7.04850 15377 ft 204 kts 217°
2026-04-18 21:24 41.61007 -7.05985 15944 ft 205 kts 218°
2026-04-18 21:24 41.59856 -7.07130 16491 ft 207 kts 218°
2026-04-18 21:25 41.58707 -7.08258 17025 ft 208 kts 217°
2026-04-18 21:25 41.57530 -7.09401 17565 ft 210 kts 218°
2026-04-18 21:25 41.56341 -7.10551 18098 ft 211 kts 218°
2026-04-18 21:25 41.55143 -7.11704 18601 ft 213 kts 218°
2026-04-18 21:26 41.53934 -7.12867 19064 ft 215 kts 218°
2026-04-18 21:26 41.52714 -7.14039 19524 ft 217 kts 218°
2026-04-18 21:26 41.51487 -7.15217 19984 ft 218 kts 218°
2026-04-18 21:26 41.50247 -7.16406 20425 ft 220 kts 218°
2026-04-18 21:27 41.49002 -7.17599 20877 ft 221 kts 218°
2026-04-18 21:27 41.47763 -7.18789 21301 ft 223 kts 218°
2026-04-18 21:27 41.46496 -7.20004 21720 ft 225 kts 218°
2026-04-18 21:27 41.45220 -7.21226 22136 ft 227 kts 218°
2026-04-18 21:28 41.43930 -7.22461 22547 ft 229 kts 218°
2026-04-18 21:28 41.42633 -7.23701 22947 ft 231 kts 218°
2026-04-18 21:28 41.41325 -7.24952 23341 ft 232 kts 218°
2026-04-18 21:28 41.40006 -7.26211 23723 ft 234 kts 218°
2026-04-18 21:29 41.38681 -7.27478 24048 ft 235 kts 218°
2026-04-18 21:29 41.37351 -7.28749 24394 ft 235 kts 218°
2026-04-18 21:29 41.36017 -7.30021 24715 ft 237 kts 218°
2026-04-18 21:29 41.34678 -7.31298 24920 ft 243 kts 218°
2026-04-18 21:30 41.33278 -7.32636 25044 ft 252 kts 218°
2026-04-18 21:30 41.31822 -7.34029 25056 ft 262 kts 218°
2026-04-18 21:30 41.30312 -7.35475 25063 ft 271 kts 218°
2026-04-18 21:30 41.28761 -7.36957 25063 ft 278 kts 218°
2026-04-18 21:31 41.27170 -7.38474 25071 ft 284 kts 218°
2026-04-18 21:31 41.25574 -7.39994 25067 ft 288 kts 218°
2026-04-18 21:31 41.23935 -7.41552 25061 ft 291 kts 217°
2026-04-18 21:31 41.22280 -7.43122 25070 ft 293 kts 217°
2026-04-18 21:32 41.20613 -7.44701 25063 ft 295 kts 217°
2026-04-18 21:32 41.18932 -7.46291 25074 ft 296 kts 217°
2026-04-18 21:32 41.17250 -7.47883 25069 ft 297 kts 217°
2026-04-18 21:32 41.15563 -7.49481 25072 ft 298 kts 217°
2026-04-18 21:33 41.13872 -7.51079 25075 ft 299 kts 217°
2026-04-18 21:33 41.12175 -7.52683 25073 ft 299 kts 217°
2026-04-18 21:33 41.10475 -7.54287 25069 ft 300 kts 217°
2026-04-18 21:33 41.08795 -7.55870 25064 ft 299 kts 217°
2026-04-18 21:34 41.07093 -7.57466 25072 ft 299 kts 217°
2026-04-18 21:34 41.05389 -7.59062 25083 ft 300 kts 217°
2026-04-18 21:34 41.03684 -7.60664 25076 ft 300 kts 217°
2026-04-18 21:34 41.01978 -7.62273 25067 ft 300 kts 217°
2026-04-18 21:35 41.00278 -7.63879 25072 ft 300 kts 217°
2026-04-18 21:35 40.98573 -7.65489 25072 ft 301 kts 217°
2026-04-18 21:35 40.96870 -7.67093 25073 ft 301 kts 217°
2026-04-18 21:35 40.95184 -7.68679 25075 ft 301 kts 217°
2026-04-18 21:36 40.93477 -7.70282 25072 ft 301 kts 217°
2026-04-18 21:36 40.91765 -7.71886 25074 ft 301 kts 217°
2026-04-18 21:36 40.90055 -7.73490 25071 ft 301 kts 217°
2026-04-18 21:36 40.88344 -7.75094 25075 ft 301 kts 217°
2026-04-18 21:37 40.86631 -7.76697 25078 ft 302 kts 217°
2026-04-18 21:37 40.84919 -7.78297 25076 ft 302 kts 217°
2026-04-18 21:37 40.83204 -7.79901 25070 ft 302 kts 217°
2026-04-18 21:37 40.81489 -7.81504 25073 ft 302 kts 217°
2026-04-18 21:38 40.79776 -7.83105 25073 ft 301 kts 217°
2026-04-18 21:38 40.78087 -7.84687 25074 ft 301 kts 217°
2026-04-18 21:38 40.76376 -7.86288 25084 ft 301 kts 216°
2026-04-18 21:38 40.74664 -7.87882 25066 ft 302 kts 216°
2026-04-18 21:39 40.72944 -7.89480 25076 ft 302 kts 216°
2026-04-18 21:39 40.71225 -7.91079 25066 ft 302 kts 217°
2026-04-18 21:39 40.69509 -7.92676 25067 ft 302 kts 216°
2026-04-18 21:39 40.67786 -7.94274 25069 ft 303 kts 217°
2026-04-18 21:40 40.66647 -7.95332 25069 ft 303 kts 216°
2026-04-18 21:40 40.64923 -7.96927 25068 ft 303 kts 216°
2026-04-18 21:40 40.63199 -7.98524 25068 ft 303 kts 216°
2026-04-18 21:40 40.61477 -8.00121 25063 ft 303 kts 216°
2026-04-18 21:41 40.59756 -8.01717 25064 ft 302 kts 216°
2026-04-18 21:41 40.58035 -8.03311 25074 ft 303 kts 216°
2026-04-18 21:41 40.56309 -8.04909 25064 ft 303 kts 216°
2026-04-18 21:41 40.54588 -8.06502 25067 ft 303 kts 216°
2026-04-18 21:42 40.52866 -8.08097 25057 ft 303 kts 216°
2026-04-18 21:42 40.51137 -8.09695 25064 ft 303 kts 216°
2026-04-18 21:42 40.49431 -8.11270 25059 ft 304 kts 216°
2026-04-18 21:42 40.47702 -8.12865 25059 ft 304 kts 216°
2026-04-18 21:43 40.45958 -8.14460 25057 ft 304 kts 214°
2026-04-18 21:43 40.44108 -8.15818 25057 ft 305 kts 210°
2026-04-18 21:43 40.42258 -8.17177 25056 ft 304 kts 211°
2026-04-18 21:43 40.40416 -8.18569 25060 ft 304 kts 211°
2026-04-18 21:44 40.38581 -8.19958 25059 ft 305 kts 211°
2026-04-18 21:44 40.36764 -8.21329 25057 ft 305 kts 211°
2026-04-18 21:44 40.34922 -8.22713 25064 ft 305 kts 211°
2026-04-18 21:44 40.33078 -8.24091 25057 ft 305 kts 211°
2026-04-18 21:45 40.31233 -8.25469 25056 ft 305 kts 211°
2026-04-18 21:45 40.29386 -8.26843 25060 ft 305 kts 211°
2026-04-18 21:45 40.27539 -8.28219 25062 ft 305 kts 210°
2026-04-18 21:45 40.25686 -8.29594 25061 ft 305 kts 210°
2026-04-18 21:46 40.23860 -8.30948 25052 ft 305 kts 210°
2026-04-18 21:46 40.22010 -8.32319 25054 ft 305 kts 210°
2026-04-18 21:46 40.20162 -8.33687 25055 ft 305 kts 210°
2026-04-18 21:46 40.18307 -8.35061 25059 ft 305 kts 210°
2026-04-18 21:47 40.16459 -8.36429 25055 ft 306 kts 210°
2026-04-18 21:47 40.14604 -8.37801 25056 ft 306 kts 210°
2026-04-18 21:47 40.12749 -8.39173 25054 ft 306 kts 210°
2026-04-18 21:47 40.10899 -8.40538 25056 ft 306 kts 210°
2026-04-18 21:48 40.09050 -8.41903 25060 ft 306 kts 210°
2026-04-18 21:48 40.07196 -8.43270 25055 ft 306 kts 210°
2026-04-18 21:48 40.05340 -8.44639 25058 ft 306 kts 210°
2026-04-18 21:48 40.03489 -8.46003 25057 ft 306 kts 210°
2026-04-18 21:49 40.01658 -8.47351 25059 ft 306 kts 210°
2026-04-18 21:49 39.99806 -8.48714 25060 ft 306 kts 210°
2026-04-18 21:49 39.97946 -8.50082 25062 ft 306 kts 210°
2026-04-18 21:49 39.96086 -8.51448 25055 ft 306 kts 210°
2026-04-18 21:50 39.94230 -8.52811 25059 ft 306 kts 210°
2026-04-18 21:50 39.92371 -8.54175 25056 ft 306 kts 210°
2026-04-18 21:50 39.90540 -8.55518 25061 ft 306 kts 210°
2026-04-18 21:50 39.88678 -8.56883 25054 ft 307 kts 210°
2026-04-18 21:51 39.86815 -8.58248 25059 ft 307 kts 210°
2026-04-18 21:51 39.84955 -8.59609 25052 ft 306 kts 210°
2026-04-18 21:51 39.83093 -8.60977 25056 ft 306 kts 210°
2026-04-18 21:51 39.81235 -8.62337 25057 ft 306 kts 210°
2026-04-18 21:52 39.79379 -8.63691 25058 ft 306 kts 210°
2026-04-18 21:52 39.77544 -8.65030 25057 ft 306 kts 210°
2026-04-18 21:52 39.75687 -8.66385 25059 ft 306 kts 210°
2026-04-18 21:52 39.73826 -8.67744 25060 ft 306 kts 210°
2026-04-18 21:53 39.71960 -8.69101 25056 ft 306 kts 210°
2026-04-18 21:53 39.70100 -8.70452 25055 ft 306 kts 210°
2026-04-18 21:53 39.68243 -8.71803 25055 ft 306 kts 210°
2026-04-18 21:53 39.66406 -8.73138 25055 ft 306 kts 210°
2026-04-18 21:54 39.64549 -8.74489 25052 ft 306 kts 210°
2026-04-18 21:54 39.62695 -8.75837 25056 ft 306 kts 210°
2026-04-18 21:54 39.60841 -8.77186 25062 ft 306 kts 210°
2026-04-18 21:54 39.58984 -8.78535 25054 ft 306 kts 210°
2026-04-18 21:55 39.57123 -8.79884 25055 ft 306 kts 210°
2026-04-18 21:55 39.55266 -8.81230 25056 ft 306 kts 210°
2026-04-18 21:55 39.53412 -8.82573 25056 ft 305 kts 210°
2026-04-18 21:55 39.51555 -8.83917 25060 ft 306 kts 210°
2026-04-18 21:56 39.49697 -8.85262 25060 ft 306 kts 210°
2026-04-18 21:56 39.47859 -8.86590 25046 ft 306 kts 210°
2026-04-18 21:56 39.45998 -8.87934 24994 ft 307 kts 210°
2026-04-18 21:56 39.44108 -8.89303 24708 ft 316 kts 210°
2026-04-18 21:57 39.42157 -8.90725 24282 ft 325 kts 210°
2026-04-18 21:57 39.40182 -8.92167 23865 ft 326 kts 210°
2026-04-18 21:57 39.38201 -8.93608 23416 ft 327 kts 210°
2026-04-18 21:57 39.36212 -8.95043 22930 ft 328 kts 210°
2026-04-18 21:58 39.34241 -8.96460 22453 ft 328 kts 210°
2026-04-18 21:58 39.32244 -8.97901 21968 ft 329 kts 210°
2026-04-18 21:58 39.30245 -8.99343 21509 ft 329 kts 210°
2026-04-18 21:58 39.28238 -9.00790 21056 ft 330 kts 210°
2026-04-18 21:59 39.26234 -9.02238 20612 ft 331 kts 210°
2026-04-18 21:59 39.24217 -9.03686 20170 ft 331 kts 210°
2026-04-18 21:59 39.22196 -9.05122 19736 ft 331 kts 210°
2026-04-18 21:59 39.20179 -9.06555 19307 ft 331 kts 210°
2026-04-18 22:00 39.18154 -9.07992 18877 ft 332 kts 209°
2026-04-18 22:00 39.16154 -9.09407 18473 ft 332 kts 209°
2026-04-18 22:00 39.14139 -9.10833 18006 ft 328 kts 210°
2026-04-18 22:00 39.12158 -9.12244 17531 ft 323 kts 210°
2026-04-18 22:01 39.10206 -9.13637 17066 ft 319 kts 209°
2026-04-18 22:01 39.08271 -9.15018 16600 ft 316 kts 209°
2026-04-18 22:01 39.06352 -9.16383 16145 ft 314 kts 209°
2026-04-18 22:01 39.04445 -9.17741 15699 ft 312 kts 209°
2026-04-18 22:02 39.02542 -9.19096 15251 ft 311 kts 209°
2026-04-18 22:02 39.00654 -9.20444 14824 ft 310 kts 209°
2026-04-18 22:02 38.98770 -9.21781 14392 ft 309 kts 209°
2026-04-18 22:02 38.96893 -9.23116 13967 ft 308 kts 209°
2026-04-18 22:03 38.95035 -9.24432 13523 ft 308 kts 208°
2026-04-18 22:03 38.93158 -9.25764 13063 ft 307 kts 209°
2026-04-18 22:03 38.91295 -9.27093 12590 ft 306 kts 209°
2026-04-18 22:03 38.89433 -9.28414 12152 ft 305 kts 208°
2026-04-18 22:04 38.87582 -9.29727 11703 ft 299 kts 209°
2026-04-18 22:04 38.85799 -9.30993 11259 ft 287 kts 208°
2026-04-18 22:04 38.84098 -9.32191 10817 ft 278 kts 208°
2026-04-18 22:04 38.82408 -9.33359 10391 ft 272 kts 208°
2026-04-18 22:05 38.80752 -9.34509 9959 ft 268 kts 208°
2026-04-18 22:05 38.79132 -9.35654 9492 ft 264 kts 208°
2026-04-18 22:05 38.77534 -9.36794 9041 ft 262 kts 208°
2026-04-18 22:05 38.75942 -9.37930 8591 ft 260 kts 208°
2026-04-18 22:06 38.74386 -9.39035 8143 ft 258 kts 208°
2026-04-18 22:06 38.72829 -9.40141 7703 ft 251 kts 207°
2026-04-18 22:06 38.71341 -9.41185 7266 ft 237 kts 207°
2026-04-18 22:06 38.69914 -9.42174 6851 ft 229 kts 206°
2026-04-18 22:07 38.68532 -9.43141 6407 ft 223 kts 206°
2026-04-18 22:07 38.67190 -9.44087 5932 ft 217 kts 206°
2026-04-18 22:07 38.65882 -9.45011 5476 ft 213 kts 207°
2026-04-18 22:07 38.64600 -9.45919 5031 ft 209 kts 207°
2026-04-18 22:08 38.63337 -9.46808 4579 ft 206 kts 207°
2026-04-18 22:08 38.62090 -9.47686 4130 ft 204 kts 207°
2026-04-18 22:08 38.60880 -9.48538 3796 ft 197 kts 207°
2026-04-18 22:08 38.59687 -9.49375 3550 ft 195 kts 207°
2026-04-18 22:09 38.58427 -9.49957 3310 ft 192 kts 185°
2026-04-18 22:09 38.57121 -9.49700 3074 ft 191 kts 157°
2026-04-18 22:09 38.56101 -9.48693 3033 ft 183 kts 129°
2026-04-18 22:09 38.55553 -9.47268 3006 ft 179 kts 105°
2026-04-18 22:10 38.55417 -9.45653 2999 ft 187 kts 95°
2026-04-18 22:10 38.55335 -9.43958 2990 ft 193 kts 95°
2026-04-18 22:10 38.55248 -9.42235 2990 ft 196 kts 96°
2026-04-18 22:10 38.55202 -9.40511 2992 ft 198 kts 88°
2026-04-18 22:11 38.55526 -9.38795 3001 ft 196 kts 70°
2026-04-18 22:11 38.55958 -9.37171 2988 ft 195 kts 76°
2026-04-18 22:11 38.56305 -9.35466 2759 ft 199 kts 77°
2026-04-18 22:11 38.56650 -9.33769 2509 ft 196 kts 76°
2026-04-18 22:12 38.58164 -9.31143 2050 ft 186 kts 23°
2026-04-18 22:12 38.59378 -9.30855 2017 ft 172 kts 357°
2026-04-18 22:12 38.60550 -9.31178 2010 ft 174 kts 342°
2026-04-18 22:13 38.61723 -9.31611 2008 ft 176 kts 345°
2026-04-18 22:13 38.62908 -9.32019 2000 ft 176 kts 344°
2026-04-18 22:13 38.64058 -9.32440 1903 ft 166 kts 343°
2026-04-18 22:13 38.65132 -9.32838 1694 ft 157 kts 344°
2026-04-18 22:14 38.66138 -9.33207 1482 ft 140 kts 345°
2026-04-18 22:14 38.66992 -9.33517 1309 ft 118 kts 345°
2026-04-18 22:14 38.67747 -9.33792 1136 ft 108 kts 345°
2026-04-18 22:14 38.68461 -9.34055 1039 ft 107 kts 346°
2026-04-18 22:15 38.69181 -9.34302 886 ft 106 kts 347°
2026-04-18 22:15 38.69887 -9.34556 723 ft 105 kts 344°
2026-04-18 22:15 38.70574 -9.34822 566 ft 101 kts 344°
2026-04-18 22:15 38.71268 -9.35071 453 ft 102 kts 347°
2026-04-18 22:16 38.71924 -9.35305 336 ft 94 kts 345°
2026-04-18 22:16 38.72456 -9.35496 322 ft 64 kts 343°
2026-04-18 22:16 38.72678 -9.35580 322 ft 16 kts 344°
2026-04-18 22:16 38.72719 -9.35584 322 ft 6 kts
2026-04-18 22:17 38.72701 -9.35592 320 ft 8 kts 158°
2026-04-18 22:17 38.72636 -9.35566 321 ft 11 kts 165°
2026-04-18 22:17 38.72555 -9.35536 321 ft 13 kts 163°
2026-04-18 22:17 38.72460 -9.35500 322 ft 15 kts 162°
2026-04-18 22:18 38.72369 -9.35476 320 ft 13 kts 198°
2026-04-18 22:18 38.72336 -9.35569 320 ft 13 kts 252°
2026-04-18 22:18 38.72320 -9.35634 320 ft 12 kts 253°
2026-04-18 22:18 38.72289 -9.35740 320 ft 5 kts 208°
2026-04-18 22:19 38.72230 -9.35741 322 ft 11 kts 180°
2026-04-18 22:19 38.72159 -9.35741 322 ft 6 kts 179°
2026-04-18 22:19 38.72128 -9.35772 322 ft 5 kts 293°
2026-04-18 22:19 38.72147 -9.35778 322 ft 0 kts 357°